sensor_id;sensor_type;location;lat;lon;timestamp;P1;durP1;ratioP1;P2;durP2;ratioP2
24044;SDS011;26257;49.442;8.422;2022-08-27T00:01:30;21.50;;;14.40;;
24044;SDS011;26257;49.442;8.422;2022-08-27T00:03:56;22.55;;;15.40;;
24044;SDS011;26257;49.442;8.422;2022-08-27T00:06:22;24.27;;;15.45;;
24044;SDS011;26257;49.442;8.422;2022-08-27T00:08:49;18.48;;;14.68;;
24044;SDS011;26257;49.442;8.422;2022-08-27T00:11:16;20.83;;;13.98;;
24044;SDS011;26257;49.442;8.422;2022-08-27T00:13:44;19.80;;;14.75;;
24044;SDS011;26257;49.442;8.422;2022-08-27T00:16:10;23.15;;;16.58;;
24044;SDS011;26257;49.442;8.422;2022-08-27T00:18:38;25.05;;;16.50;;
24044;SDS011;26257;49.442;8.422;2022-08-27T00:21:04;25.50;;;17.00;;
24044;SDS011;26257;49.442;8.422;2022-08-27T00:23:30;23.17;;;16.60;;
24044;SDS011;26257;49.442;8.422;2022-08-27T00:25:55;23.60;;;16.05;;
24044;SDS011;26257;49.442;8.422;2022-08-27T00:28:21;21.30;;;16.45;;
24044;SDS011;26257;49.442;8.422;2022-08-27T00:30:47;24.42;;;17.33;;
24044;SDS011;26257;49.442;8.422;2022-08-27T00:33:12;25.42;;;16.88;;
24044;SDS011;26257;49.442;8.422;2022-08-27T00:35:37;22.23;;;16.85;;
24044;SDS011;26257;49.442;8.422;2022-08-27T00:38:04;22.75;;;16.42;;
24044;SDS011;26257;49.442;8.422;2022-08-27T00:40:31;25.65;;;17.38;;
24044;SDS011;26257;49.442;8.422;2022-08-27T00:42:57;22.98;;;16.23;;
24044;SDS011;26257;49.442;8.422;2022-08-27T00:45:27;29.85;;;18.00;;
24044;SDS011;26257;49.442;8.422;2022-08-27T00:47:56;26.63;;;19.05;;
24044;SDS011;26257;49.442;8.422;2022-08-27T00:50:44;21.20;;;16.95;;
24044;SDS011;26257;49.442;8.422;2022-08-27T00:53:14;25.58;;;16.40;;
24044;SDS011;26257;49.442;8.422;2022-08-27T00:55:43;23.17;;;17.70;;
24044;SDS011;26257;49.442;8.422;2022-08-27T00:58:19;23.00;;;16.90;;
24044;SDS011;26257;49.442;8.422;2022-08-27T01:00:50;20.90;;;17.40;;
24044;SDS011;26257;49.442;8.422;2022-08-27T01:03:16;25.38;;;17.77;;
24044;SDS011;26257;49.442;8.422;2022-08-27T01:05:42;22.63;;;18.20;;
24044;SDS011;26257;49.442;8.422;2022-08-27T01:08:12;27.05;;;18.17;;
24044;SDS011;26257;49.442;8.422;2022-08-27T01:10:41;22.20;;;16.70;;
24044;SDS011;26257;49.442;8.422;2022-08-27T01:13:08;27.55;;;18.23;;
24044;SDS011;26257;49.442;8.422;2022-08-27T01:15:35;25.05;;;18.20;;
24044;SDS011;26257;49.442;8.422;2022-08-27T01:18:04;25.10;;;16.88;;
24044;SDS011;26257;49.442;8.422;2022-08-27T01:20:44;23.48;;;16.67;;
24044;SDS011;26257;49.442;8.422;2022-08-27T01:26:22;25.88;;;16.77;;
24044;SDS011;26257;49.442;8.422;2022-08-27T01:28:49;24.30;;;18.00;;
24044;SDS011;26257;49.442;8.422;2022-08-27T01:31:15;21.67;;;17.48;;
24044;SDS011;26257;49.442;8.422;2022-08-27T01:33:50;23.20;;;17.38;;
24044;SDS011;26257;49.442;8.422;2022-08-27T01:36:18;23.85;;;17.60;;
24044;SDS011;26257;49.442;8.422;2022-08-27T01:38:43;25.15;;;17.98;;
24044;SDS011;26257;49.442;8.422;2022-08-27T01:41:08;28.13;;;18.42;;
24044;SDS011;26257;49.442;8.422;2022-08-27T01:43:34;27.60;;;18.55;;
24044;SDS011;26257;49.442;8.422;2022-08-27T01:45:59;26.15;;;19.58;;
24044;SDS011;26257;49.442;8.422;2022-08-27T01:48:25;26.52;;;18.40;;
24044;SDS011;26257;49.442;8.422;2022-08-27T01:50:50;28.52;;;18.27;;
24044;SDS011;26257;49.442;8.422;2022-08-27T01:53:18;27.08;;;18.70;;
24044;SDS011;26257;49.442;8.422;2022-08-27T01:55:49;26.83;;;18.08;;
24044;SDS011;26257;49.442;8.422;2022-08-27T01:58:16;25.83;;;18.58;;
24044;SDS011;26257;49.442;8.422;2022-08-27T02:00:45;23.70;;;19.10;;
24044;SDS011;26257;49.442;8.422;2022-08-27T02:03:14;31.70;;;20.00;;
24044;SDS011;26257;49.442;8.422;2022-08-27T02:05:42;27.98;;;18.58;;
24044;SDS011;26257;49.442;8.422;2022-08-27T02:08:09;28.88;;;19.50;;
24044;SDS011;26257;49.442;8.422;2022-08-27T02:10:36;26.33;;;19.60;;
24044;SDS011;26257;49.442;8.422;2022-08-27T02:13:04;29.70;;;20.60;;
24044;SDS011;26257;49.442;8.422;2022-08-27T02:15:34;27.45;;;20.83;;
24044;SDS011;26257;49.442;8.422;2022-08-27T02:18:01;28.15;;;21.83;;
24044;SDS011;26257;49.442;8.422;2022-08-27T02:20:29;28.63;;;19.42;;
24044;SDS011;26257;49.442;8.422;2022-08-27T02:22:55;23.80;;;19.52;;
24044;SDS011;26257;49.442;8.422;2022-08-27T02:25:21;25.73;;;18.52;;
24044;SDS011;26257;49.442;8.422;2022-08-27T02:27:47;26.52;;;17.60;;
24044;SDS011;26257;49.442;8.422;2022-08-27T02:30:15;22.58;;;17.25;;
24044;SDS011;26257;49.442;8.422;2022-08-27T02:32:43;25.88;;;17.08;;
24044;SDS011;26257;49.442;8.422;2022-08-27T02:35:11;22.25;;;14.75;;
24044;SDS011;26257;49.442;8.422;2022-08-27T02:37:40;22.70;;;16.10;;
24044;SDS011;26257;49.442;8.422;2022-08-27T02:40:06;21.98;;;14.68;;
24044;SDS011;26257;49.442;8.422;2022-08-27T02:42:33;20.50;;;14.25;;
24044;SDS011;26257;49.442;8.422;2022-08-27T02:44:58;17.83;;;13.80;;
24044;SDS011;26257;49.442;8.422;2022-08-27T02:47:24;19.75;;;13.43;;
24044;SDS011;26257;49.442;8.422;2022-08-27T03:09:28;21.88;;;13.00;;
24044;SDS011;26257;49.442;8.422;2022-08-27T03:11:53;20.73;;;13.38;;
24044;SDS011;26257;49.442;8.422;2022-08-27T03:14:19;23.95;;;13.45;;
24044;SDS011;26257;49.442;8.422;2022-08-27T03:16:44;20.48;;;12.77;;
24044;SDS011;26257;49.442;8.422;2022-08-27T03:19:10;24.38;;;14.20;;
24044;SDS011;26257;49.442;8.422;2022-08-27T03:21:35;23.00;;;12.82;;
24044;SDS011;26257;49.442;8.422;2022-08-27T03:24:01;17.05;;;13.48;;
24044;SDS011;26257;49.442;8.422;2022-08-27T03:26:29;21.95;;;12.93;;
24044;SDS011;26257;49.442;8.422;2022-08-27T03:28:55;19.95;;;13.38;;
24044;SDS011;26257;49.442;8.422;2022-08-27T03:31:22;19.08;;;13.43;;
24044;SDS011;26257;49.442;8.422;2022-08-27T03:33:53;18.50;;;12.55;;
24044;SDS011;26257;49.442;8.422;2022-08-27T03:36:20;19.10;;;13.48;;
24044;SDS011;26257;49.442;8.422;2022-08-27T03:38:45;24.63;;;13.70;;
24044;SDS011;26257;49.442;8.422;2022-08-27T03:41:11;21.52;;;13.77;;
24044;SDS011;26257;49.442;8.422;2022-08-27T03:43:37;19.33;;;13.45;;
24044;SDS011;26257;49.442;8.422;2022-08-27T03:46:03;20.92;;;13.68;;
24044;SDS011;26257;49.442;8.422;2022-08-27T03:48:30;20.98;;;13.85;;
24044;SDS011;26257;49.442;8.422;2022-08-27T03:50:56;20.77;;;13.93;;
24044;SDS011;26257;49.442;8.422;2022-08-27T03:53:21;21.50;;;13.13;;
24044;SDS011;26257;49.442;8.422;2022-08-27T03:55:47;22.10;;;14.75;;
24044;SDS011;26257;49.442;8.422;2022-08-27T03:58:13;19.63;;;13.80;;
24044;SDS011;26257;49.442;8.422;2022-08-27T04:00:39;18.42;;;13.55;;
24044;SDS011;26257;49.442;8.422;2022-08-27T04:03:05;21.63;;;14.02;;
24044;SDS011;26257;49.442;8.422;2022-08-27T04:05:32;22.27;;;14.25;;
24044;SDS011;26257;49.442;8.422;2022-08-27T04:07:58;23.27;;;14.48;;
24044;SDS011;26257;49.442;8.422;2022-08-27T04:10:24;20.30;;;14.00;;
24044;SDS011;26257;49.442;8.422;2022-08-27T04:12:51;18.20;;;13.57;;
24044;SDS011;26257;49.442;8.422;2022-08-27T04:15:16;19.48;;;14.40;;
24044;SDS011;26257;49.442;8.422;2022-08-27T04:17:42;23.20;;;13.75;;
24044;SDS011;26257;49.442;8.422;2022-08-27T04:20:07;19.65;;;13.90;;
24044;SDS011;26257;49.442;8.422;2022-08-27T04:22:34;20.50;;;13.23;;
24044;SDS011;26257;49.442;8.422;2022-08-27T04:25:00;20.63;;;13.90;;
24044;SDS011;26257;49.442;8.422;2022-08-27T04:27:26;20.33;;;14.07;;
24044;SDS011;26257;49.442;8.422;2022-08-27T04:29:56;20.80;;;13.65;;
24044;SDS011;26257;49.442;8.422;2022-08-27T04:32:24;21.25;;;14.70;;
24044;SDS011;26257;49.442;8.422;2022-08-27T04:34:57;19.67;;;13.70;;
24044;SDS011;26257;49.442;8.422;2022-08-27T04:37:23;19.63;;;14.27;;
24044;SDS011;26257;49.442;8.422;2022-08-27T04:39:50;21.02;;;14.20;;
24044;SDS011;26257;49.442;8.422;2022-08-27T04:42:17;22.27;;;15.50;;
24044;SDS011;26257;49.442;8.422;2022-08-27T04:44:43;23.60;;;13.57;;
24044;SDS011;26257;49.442;8.422;2022-08-27T04:47:10;24.95;;;14.40;;
24044;SDS011;26257;49.442;8.422;2022-08-27T04:49:36;22.77;;;14.27;;
24044;SDS011;26257;49.442;8.422;2022-08-27T04:52:02;23.38;;;14.88;;
24044;SDS011;26257;49.442;8.422;2022-08-27T04:54:28;18.23;;;14.23;;
24044;SDS011;26257;49.442;8.422;2022-08-27T04:56:54;24.23;;;15.48;;
24044;SDS011;26257;49.442;8.422;2022-08-27T04:59:19;20.83;;;14.60;;
24044;SDS011;26257;49.442;8.422;2022-08-27T05:01:45;21.48;;;14.88;;
24044;SDS011;26257;49.442;8.422;2022-08-27T05:04:12;23.17;;;14.80;;
24044;SDS011;26257;49.442;8.422;2022-08-27T05:06:39;22.25;;;13.88;;
24044;SDS011;26257;49.442;8.422;2022-08-27T05:09:05;20.58;;;13.75;;
24044;SDS011;26257;49.442;8.422;2022-08-27T05:11:31;20.02;;;15.23;;
24044;SDS011;26257;49.442;8.422;2022-08-27T05:14:00;20.02;;;13.10;;
24044;SDS011;26257;49.442;8.422;2022-08-27T05:16:28;20.77;;;13.50;;
24044;SDS011;26257;49.442;8.422;2022-08-27T05:18:53;26.15;;;14.65;;
24044;SDS011;26257;49.442;8.422;2022-08-27T05:21:21;23.67;;;15.55;;
24044;SDS011;26257;49.442;8.422;2022-08-27T05:23:48;26.27;;;14.23;;
24044;SDS011;26257;49.442;8.422;2022-08-27T05:26:15;25.00;;;14.90;;
24044;SDS011;26257;49.442;8.422;2022-08-27T05:28:40;24.83;;;14.90;;
24044;SDS011;26257;49.442;8.422;2022-08-27T05:31:09;22.00;;;14.25;;
24044;SDS011;26257;49.442;8.422;2022-08-27T05:33:36;17.90;;;13.73;;
24044;SDS011;26257;49.442;8.422;2022-08-27T05:36:03;22.65;;;15.20;;
24044;SDS011;26257;49.442;8.422;2022-08-27T05:38:29;21.35;;;15.48;;
24044;SDS011;26257;49.442;8.422;2022-08-27T05:41:28;24.40;;;14.77;;
24044;SDS011;26257;49.442;8.422;2022-08-27T05:43:50;20.40;;;16.20;;
24044;SDS011;26257;49.442;8.422;2022-08-27T05:46:18;25.70;;;15.23;;
24044;SDS011;26257;49.442;8.422;2022-08-27T05:48:46;27.00;;;15.65;;
24044;SDS011;26257;49.442;8.422;2022-08-27T05:51:20;21.92;;;15.13;;
24044;SDS011;26257;49.442;8.422;2022-08-27T05:53:48;21.48;;;15.80;;
24044;SDS011;26257;49.442;8.422;2022-08-27T05:56:15;21.02;;;13.07;;
24044;SDS011;26257;49.442;8.422;2022-08-27T05:58:45;28.00;;;15.10;;
24044;SDS011;26257;49.442;8.422;2022-08-27T06:01:30;23.10;;;13.85;;
24044;SDS011;26257;49.442;8.422;2022-08-27T06:03:58;19.48;;;13.50;;
24044;SDS011;26257;49.442;8.422;2022-08-27T06:06:24;23.15;;;14.90;;
24044;SDS011;26257;49.442;8.422;2022-08-27T06:08:50;25.45;;;14.75;;
24044;SDS011;26257;49.442;8.422;2022-08-27T06:11:17;21.10;;;14.60;;
24044;SDS011;26257;49.442;8.422;2022-08-27T06:13:44;21.90;;;14.73;;
24044;SDS011;26257;49.442;8.422;2022-08-27T06:16:11;28.17;;;15.02;;
24044;SDS011;26257;49.442;8.422;2022-08-27T06:18:40;21.13;;;13.98;;
24044;SDS011;26257;49.442;8.422;2022-08-27T06:21:07;21.85;;;14.32;;
24044;SDS011;26257;49.442;8.422;2022-08-27T06:23:33;20.65;;;14.52;;
24044;SDS011;26257;49.442;8.422;2022-08-27T06:26:00;21.88;;;14.65;;
24044;SDS011;26257;49.442;8.422;2022-08-27T06:28:29;25.80;;;14.18;;
24044;SDS011;26257;49.442;8.422;2022-08-27T06:31:09;23.25;;;15.35;;
24044;SDS011;26257;49.442;8.422;2022-08-27T06:33:43;21.25;;;13.75;;
24044;SDS011;26257;49.442;8.422;2022-08-27T06:36:10;20.52;;;14.68;;
24044;SDS011;26257;49.442;8.422;2022-08-27T06:38:38;24.08;;;14.93;;
24044;SDS011;26257;49.442;8.422;2022-08-27T06:41:05;25.58;;;15.38;;
24044;SDS011;26257;49.442;8.422;2022-08-27T06:43:33;24.77;;;15.32;;
24044;SDS011;26257;49.442;8.422;2022-08-27T06:46:01;22.40;;;15.55;;
24044;SDS011;26257;49.442;8.422;2022-08-27T06:48:30;22.42;;;14.32;;
24044;SDS011;26257;49.442;8.422;2022-08-27T06:50:57;24.85;;;15.43;;
24044;SDS011;26257;49.442;8.422;2022-08-27T06:53:23;21.42;;;15.15;;
24044;SDS011;26257;49.442;8.422;2022-08-27T06:55:49;20.77;;;15.90;;
24044;SDS011;26257;49.442;8.422;2022-08-27T06:58:15;21.50;;;15.00;;
24044;SDS011;26257;49.442;8.422;2022-08-27T07:00:42;21.02;;;15.70;;
24044;SDS011;26257;49.442;8.422;2022-08-27T07:03:08;20.58;;;15.90;;
24044;SDS011;26257;49.442;8.422;2022-08-27T07:05:35;19.58;;;16.08;;
24044;SDS011;26257;49.442;8.422;2022-08-27T07:08:02;22.60;;;15.50;;
24044;SDS011;26257;49.442;8.422;2022-08-27T07:10:29;23.95;;;15.82;;
24044;SDS011;26257;49.442;8.422;2022-08-27T07:12:56;22.95;;;14.23;;
24044;SDS011;26257;49.442;8.422;2022-08-27T07:15:21;21.30;;;15.88;;
24044;SDS011;26257;49.442;8.422;2022-08-27T07:17:47;24.05;;;16.63;;
24044;SDS011;26257;49.442;8.422;2022-08-27T07:20:13;26.05;;;15.90;;
24044;SDS011;26257;49.442;8.422;2022-08-27T07:22:43;23.80;;;17.55;;
24044;SDS011;26257;49.442;8.422;2022-08-27T07:25:11;25.15;;;16.33;;
24044;SDS011;26257;49.442;8.422;2022-08-27T07:27:39;20.70;;;15.02;;
24044;SDS011;26257;49.442;8.422;2022-08-27T07:30:07;22.08;;;16.20;;
24044;SDS011;26257;49.442;8.422;2022-08-27T07:32:35;27.27;;;16.02;;
24044;SDS011;26257;49.442;8.422;2022-08-27T07:35:00;27.42;;;15.65;;
24044;SDS011;26257;49.442;8.422;2022-08-27T07:37:27;21.60;;;16.35;;
24044;SDS011;26257;49.442;8.422;2022-08-27T07:39:52;21.98;;;15.07;;
24044;SDS011;26257;49.442;8.422;2022-08-27T07:42:17;22.92;;;15.25;;
24044;SDS011;26257;49.442;8.422;2022-08-27T07:45:02;22.63;;;16.10;;
24044;SDS011;26257;49.442;8.422;2022-08-27T07:47:28;105.10;;;76.43;;
24044;SDS011;26257;49.442;8.422;2022-08-27T07:49:53;99.30;;;81.82;;
24044;SDS011;26257;49.442;8.422;2022-08-27T07:52:21;24.77;;;17.17;;
24044;SDS011;26257;49.442;8.422;2022-08-27T07:54:46;21.90;;;16.17;;
24044;SDS011;26257;49.442;8.422;2022-08-27T07:57:12;23.50;;;15.77;;
24044;SDS011;26257;49.442;8.422;2022-08-27T07:59:37;24.25;;;15.18;;
24044;SDS011;26257;49.442;8.422;2022-08-27T08:02:03;22.98;;;13.98;;
24044;SDS011;26257;49.442;8.422;2022-08-27T08:04:28;21.73;;;14.70;;
24044;SDS011;26257;49.442;8.422;2022-08-27T08:06:55;22.15;;;14.15;;
24044;SDS011;26257;49.442;8.422;2022-08-27T08:09:21;24.10;;;14.48;;
24044;SDS011;26257;49.442;8.422;2022-08-27T08:11:49;19.17;;;13.23;;
24044;SDS011;26257;49.442;8.422;2022-08-27T08:14:15;20.25;;;14.05;;
24044;SDS011;26257;49.442;8.422;2022-08-27T08:16:41;16.40;;;13.23;;
24044;SDS011;26257;49.442;8.422;2022-08-27T08:19:07;22.23;;;13.20;;
24044;SDS011;26257;49.442;8.422;2022-08-27T08:21:34;19.88;;;13.07;;
24044;SDS011;26257;49.442;8.422;2022-08-27T08:24:00;20.85;;;12.95;;
24044;SDS011;26257;49.442;8.422;2022-08-27T08:26:26;20.67;;;12.73;;
24044;SDS011;26257;49.442;8.422;2022-08-27T08:28:52;22.08;;;12.38;;
24044;SDS011;26257;49.442;8.422;2022-08-27T08:31:18;19.27;;;12.50;;
24044;SDS011;26257;49.442;8.422;2022-08-27T08:33:44;20.25;;;12.32;;
24044;SDS011;26257;49.442;8.422;2022-08-27T08:36:13;17.63;;;11.05;;
24044;SDS011;26257;49.442;8.422;2022-08-27T08:38:46;25.92;;;11.90;;
24044;SDS011;26257;49.442;8.422;2022-08-27T08:41:47;21.85;;;11.40;;
24044;SDS011;26257;49.442;8.422;2022-08-27T08:44:39;15.90;;;10.35;;
24044;SDS011;26257;49.442;8.422;2022-08-27T09:09:09;18.95;;;10.55;;
24044;SDS011;26257;49.442;8.422;2022-08-27T09:11:54;15.88;;;10.52;;
24044;SDS011;26257;49.442;8.422;2022-08-27T09:17:03;18.38;;;10.27;;
24044;SDS011;26257;49.442;8.422;2022-08-27T09:19:29;16.33;;;9.63;;
24044;SDS011;26257;49.442;8.422;2022-08-27T09:21:59;15.63;;;9.02;;
24044;SDS011;26257;49.442;8.422;2022-08-27T09:25:06;13.00;;;8.95;;
24044;SDS011;26257;49.442;8.422;2022-08-27T09:30:24;17.33;;;9.70;;
24044;SDS011;26257;49.442;8.422;2022-08-27T09:33:02;15.70;;;10.23;;
24044;SDS011;26257;49.442;8.422;2022-08-27T09:35:35;14.75;;;9.57;;
24044;SDS011;26257;49.442;8.422;2022-08-27T09:38:25;17.83;;;10.55;;
24044;SDS011;26257;49.442;8.422;2022-08-27T09:40:52;18.42;;;9.50;;
24044;SDS011;26257;49.442;8.422;2022-08-27T09:43:23;14.43;;;9.18;;
24044;SDS011;26257;49.442;8.422;2022-08-27T09:45:56;15.32;;;9.30;;
24044;SDS011;26257;49.442;8.422;2022-08-27T09:48:28;15.40;;;9.95;;
24044;SDS011;26257;49.442;8.422;2022-08-27T09:51:00;15.20;;;8.68;;
24044;SDS011;26257;49.442;8.422;2022-08-27T09:53:48;15.38;;;9.20;;
24044;SDS011;26257;49.442;8.422;2022-08-27T09:59:05;20.07;;;9.80;;
24044;SDS011;26257;49.442;8.422;2022-08-27T10:01:34;16.15;;;9.70;;
24044;SDS011;26257;49.442;8.422;2022-08-27T10:04:07;16.15;;;9.73;;
24044;SDS011;26257;49.442;8.422;2022-08-27T10:06:37;16.33;;;9.63;;
24044;SDS011;26257;49.442;8.422;2022-08-27T10:09:22;14.82;;;8.60;;
24044;SDS011;26257;49.442;8.422;2022-08-27T10:12:09;15.30;;;8.05;;
24044;SDS011;26257;49.442;8.422;2022-08-27T10:14:48;18.73;;;9.80;;
24044;SDS011;26257;49.442;8.422;2022-08-27T10:19:56;17.67;;;8.88;;
24044;SDS011;26257;49.442;8.422;2022-08-27T10:30:40;16.40;;;9.43;;
24044;SDS011;26257;49.442;8.422;2022-08-27T10:40:03;15.88;;;9.70;;
24044;SDS011;26257;49.442;8.422;2022-08-27T10:42:55;13.10;;;9.50;;
24044;SDS011;26257;49.442;8.422;2022-08-27T10:45:11;16.75;;;9.13;;
24044;SDS011;26257;49.442;8.422;2022-08-27T10:55:52;13.57;;;9.50;;
24044;SDS011;26257;49.442;8.422;2022-08-27T10:58:38;16.17;;;9.35;;
24044;SDS011;26257;49.442;8.422;2022-08-27T11:04:01;18.60;;;10.10;;
24044;SDS011;26257;49.442;8.422;2022-08-27T11:06:34;19.35;;;10.20;;
24044;SDS011;26257;49.442;8.422;2022-08-27T11:09:33;15.70;;;9.23;;
24044;SDS011;26257;49.442;8.422;2022-08-27T11:12:07;13.50;;;9.35;;
24044;SDS011;26257;49.442;8.422;2022-08-27T11:14:37;16.85;;;8.65;;
24044;SDS011;26257;49.442;8.422;2022-08-27T11:17:25;16.13;;;9.80;;
24044;SDS011;26257;49.442;8.422;2022-08-27T11:20:05;16.95;;;11.63;;
24044;SDS011;26257;49.442;8.422;2022-08-27T11:28:21;21.25;;;9.68;;
24044;SDS011;26257;49.442;8.422;2022-08-27T11:33:51;17.60;;;11.57;;
24044;SDS011;26257;49.442;8.422;2022-08-27T11:44:43;16.95;;;10.32;;
24044;SDS011;26257;49.442;8.422;2022-08-27T11:47:14;16.38;;;9.68;;
24044;SDS011;26257;49.442;8.422;2022-08-27T11:50:19;16.67;;;10.95;;
24044;SDS011;26257;49.442;8.422;2022-08-27T11:52:52;13.77;;;9.13;;
24044;SDS011;26257;49.442;8.422;2022-08-27T11:58:04;12.07;;;9.55;;
24044;SDS011;26257;49.442;8.422;2022-08-27T12:00:34;15.40;;;9.52;;
24044;SDS011;26257;49.442;8.422;2022-08-27T12:03:26;12.65;;;8.90;;
24044;SDS011;26257;49.442;8.422;2022-08-27T12:13:55;13.07;;;9.43;;
24044;SDS011;26257;49.442;8.422;2022-08-27T12:16:45;15.77;;;9.20;;
24044;SDS011;26257;49.442;8.422;2022-08-27T12:24:56;17.13;;;10.32;;
24044;SDS011;26257;49.442;8.422;2022-08-27T12:30:28;15.57;;;9.45;;
24044;SDS011;26257;49.442;8.422;2022-08-27T12:32:56;16.17;;;9.52;;
24044;SDS011;26257;49.442;8.422;2022-08-27T12:35:28;14.57;;;8.60;;
24044;SDS011;26257;49.442;8.422;2022-08-27T12:43:07;15.55;;;9.77;;
24044;SDS011;26257;49.442;8.422;2022-08-27T12:45:44;11.93;;;7.83;;
24044;SDS011;26257;49.442;8.422;2022-08-27T12:48:20;14.80;;;8.70;;
24044;SDS011;26257;49.442;8.422;2022-08-27T12:50:56;23.17;;;17.63;;
24044;SDS011;26257;49.442;8.422;2022-08-27T12:56:02;14.45;;;9.82;;
24044;SDS011;26257;49.442;8.422;2022-08-27T13:04:30;15.02;;;9.27;;
24044;SDS011;26257;49.442;8.422;2022-08-27T13:06:57;15.32;;;8.98;;
24044;SDS011;26257;49.442;8.422;2022-08-27T13:09:24;15.02;;;8.32;;
24044;SDS011;26257;49.442;8.422;2022-08-27T13:12:03;13.65;;;8.50;;
24044;SDS011;26257;49.442;8.422;2022-08-27T13:14:39;13.00;;;8.00;;
24044;SDS011;26257;49.442;8.422;2022-08-27T13:19:34;10.15;;;7.65;;
24044;SDS011;26257;49.442;8.422;2022-08-27T13:22:06;12.88;;;8.43;;
24044;SDS011;26257;49.442;8.422;2022-08-27T13:24:34;13.38;;;8.55;;
24044;SDS011;26257;49.442;8.422;2022-08-27T13:27:13;11.82;;;8.68;;
24044;SDS011;26257;49.442;8.422;2022-08-27T13:29:38;12.15;;;8.65;;
24044;SDS011;26257;49.442;8.422;2022-08-27T13:32:05;14.80;;;8.55;;
24044;SDS011;26257;49.442;8.422;2022-08-27T13:34:32;16.30;;;8.38;;
24044;SDS011;26257;49.442;8.422;2022-08-27T13:37:02;12.83;;;8.73;;
24044;SDS011;26257;49.442;8.422;2022-08-27T13:39:32;13.20;;;8.00;;
24044;SDS011;26257;49.442;8.422;2022-08-27T13:41:59;14.70;;;9.40;;
24044;SDS011;26257;49.442;8.422;2022-08-27T13:44:34;12.00;;;7.63;;
24044;SDS011;26257;49.442;8.422;2022-08-27T13:47:04;12.13;;;8.07;;
24044;SDS011;26257;49.442;8.422;2022-08-27T13:49:32;12.07;;;7.85;;
24044;SDS011;26257;49.442;8.422;2022-08-27T13:54:47;11.80;;;8.23;;
24044;SDS011;26257;49.442;8.422;2022-08-27T13:57:47;11.50;;;7.55;;
24044;SDS011;26257;49.442;8.422;2022-08-27T14:00:16;12.90;;;8.30;;
24044;SDS011;26257;49.442;8.422;2022-08-27T14:02:42;8.88;;;6.70;;
24044;SDS011;26257;49.442;8.422;2022-08-27T14:08:10;10.07;;;6.70;;
24044;SDS011;26257;49.442;8.422;2022-08-27T14:13:26;11.75;;;7.30;;
24044;SDS011;26257;49.442;8.422;2022-08-27T14:15:53;14.57;;;8.30;;
24044;SDS011;26257;49.442;8.422;2022-08-27T14:18:24;10.70;;;7.55;;
24044;SDS011;26257;49.442;8.422;2022-08-27T14:20:53;12.98;;;7.45;;
24044;SDS011;26257;49.442;8.422;2022-08-27T14:23:21;12.27;;;8.07;;
24044;SDS011;26257;49.442;8.422;2022-08-27T14:25:48;9.93;;;7.18;;
24044;SDS011;26257;49.442;8.422;2022-08-27T14:28:14;11.60;;;7.28;;
24044;SDS011;26257;49.442;8.422;2022-08-27T14:30:39;13.23;;;7.05;;
24044;SDS011;26257;49.442;8.422;2022-08-27T14:33:06;9.75;;;6.68;;
24044;SDS011;26257;49.442;8.422;2022-08-27T14:35:33;13.75;;;7.03;;
24044;SDS011;26257;49.442;8.422;2022-08-27T14:38:00;11.02;;;6.80;;
24044;SDS011;26257;49.442;8.422;2022-08-27T14:40:48;12.05;;;7.47;;
24044;SDS011;26257;49.442;8.422;2022-08-27T14:43:15;12.38;;;7.00;;
24044;SDS011;26257;49.442;8.422;2022-08-27T14:45:41;9.13;;;6.65;;
24044;SDS011;26257;49.442;8.422;2022-08-27T14:48:10;9.10;;;6.60;;
24044;SDS011;26257;49.442;8.422;2022-08-27T14:50:39;10.52;;;7.55;;
24044;SDS011;26257;49.442;8.422;2022-08-27T14:53:06;9.73;;;6.15;;
24044;SDS011;26257;49.442;8.422;2022-08-27T14:55:32;9.48;;;6.53;;
24044;SDS011;26257;49.442;8.422;2022-08-27T14:57:58;12.98;;;6.78;;
24044;SDS011;26257;49.442;8.422;2022-08-27T15:00:24;11.50;;;7.00;;
24044;SDS011;26257;49.442;8.422;2022-08-27T15:02:50;10.50;;;7.03;;
24044;SDS011;26257;49.442;8.422;2022-08-27T15:05:17;12.18;;;6.88;;
24044;SDS011;26257;49.442;8.422;2022-08-27T15:07:44;9.77;;;7.25;;
24044;SDS011;26257;49.442;8.422;2022-08-27T15:10:10;8.93;;;6.45;;
24044;SDS011;26257;49.442;8.422;2022-08-27T15:12:36;10.35;;;6.53;;
24044;SDS011;26257;49.442;8.422;2022-08-27T15:15:03;9.38;;;6.75;;
24044;SDS011;26257;49.442;8.422;2022-08-27T15:17:30;10.15;;;7.28;;
24044;SDS011;26257;49.442;8.422;2022-08-27T15:19:56;21.88;;;19.58;;
24044;SDS011;26257;49.442;8.422;2022-08-27T15:22:22;15.32;;;9.73;;
24044;SDS011;26257;49.442;8.422;2022-08-27T15:24:52;12.52;;;10.20;;
24044;SDS011;26257;49.442;8.422;2022-08-27T15:27:19;10.60;;;6.97;;
24044;SDS011;26257;49.442;8.422;2022-08-27T15:29:44;8.77;;;6.57;;
24044;SDS011;26257;49.442;8.422;2022-08-27T15:32:23;11.25;;;7.53;;
24044;SDS011;26257;49.442;8.422;2022-08-27T15:34:52;9.55;;;7.20;;
24044;SDS011;26257;49.442;8.422;2022-08-27T15:37:18;10.57;;;7.57;;
24044;SDS011;26257;49.442;8.422;2022-08-27T15:39:47;11.65;;;7.15;;
24044;SDS011;26257;49.442;8.422;2022-08-27T15:42:13;13.13;;;7.38;;
24044;SDS011;26257;49.442;8.422;2022-08-27T15:44:47;12.15;;;7.30;;
24044;SDS011;26257;49.442;8.422;2022-08-27T15:47:15;9.93;;;6.95;;
24044;SDS011;26257;49.442;8.422;2022-08-27T15:49:41;10.90;;;7.32;;
24044;SDS011;26257;49.442;8.422;2022-08-27T15:52:07;10.45;;;7.13;;
24044;SDS011;26257;49.442;8.422;2022-08-27T15:54:34;11.68;;;7.25;;
24044;SDS011;26257;49.442;8.422;2022-08-27T15:56:59;12.02;;;6.70;;
24044;SDS011;26257;49.442;8.422;2022-08-27T15:59:25;10.85;;;6.88;;
24044;SDS011;26257;49.442;8.422;2022-08-27T16:01:51;10.40;;;7.93;;
24044;SDS011;26257;49.442;8.422;2022-08-27T16:04:17;10.15;;;7.05;;
24044;SDS011;26257;49.442;8.422;2022-08-27T16:06:42;11.95;;;6.55;;
24044;SDS011;26257;49.442;8.422;2022-08-27T16:09:08;9.82;;;7.50;;
24044;SDS011;26257;49.442;8.422;2022-08-27T16:11:34;11.88;;;7.85;;
24044;SDS011;26257;49.442;8.422;2022-08-27T16:13:59;9.23;;;7.20;;
24044;SDS011;26257;49.442;8.422;2022-08-27T16:16:27;10.88;;;8.07;;
24044;SDS011;26257;49.442;8.422;2022-08-27T16:18:54;11.98;;;8.10;;
24044;SDS011;26257;49.442;8.422;2022-08-27T16:21:21;9.85;;;7.63;;
24044;SDS011;26257;49.442;8.422;2022-08-27T16:23:47;10.02;;;7.65;;
24044;SDS011;26257;49.442;8.422;2022-08-27T16:26:13;13.98;;;8.35;;
24044;SDS011;26257;49.442;8.422;2022-08-27T16:28:38;11.93;;;8.52;;
24044;SDS011;26257;49.442;8.422;2022-08-27T16:31:04;11.55;;;7.90;;
24044;SDS011;26257;49.442;8.422;2022-08-27T16:33:30;13.32;;;7.68;;
24044;SDS011;26257;49.442;8.422;2022-08-27T16:35:55;13.50;;;8.45;;
24044;SDS011;26257;49.442;8.422;2022-08-27T16:38:21;11.77;;;8.80;;
24044;SDS011;26257;49.442;8.422;2022-08-27T16:40:47;12.90;;;7.95;;
24044;SDS011;26257;49.442;8.422;2022-08-27T16:43:15;11.98;;;7.90;;
24044;SDS011;26257;49.442;8.422;2022-08-27T16:45:45;13.33;;;9.20;;
24044;SDS011;26257;49.442;8.422;2022-08-27T16:48:12;11.50;;;7.97;;
24044;SDS011;26257;49.442;8.422;2022-08-27T16:50:56;11.77;;;7.88;;
24044;SDS011;26257;49.442;8.422;2022-08-27T16:53:23;14.15;;;7.93;;
24044;SDS011;26257;49.442;8.422;2022-08-27T16:55:49;11.90;;;8.85;;
24044;SDS011;26257;49.442;8.422;2022-08-27T16:58:20;14.75;;;8.90;;
24044;SDS011;26257;49.442;8.422;2022-08-27T17:00:50;12.45;;;7.88;;